AirNav   Free SoundLink Mini II speaker
 
 444 users online  

IA19 Lucas County Health Center Heliport
Chariton, Iowa, USA

GOING TO CHARITON?


FAA INFORMATION EFFECTIVE 26 MARCH 2020

Location

FAA Identifier: IA19
Lat/Long: 41-01-38.9980N 093-18-08.7530W
41-01.649967N 093-18.145883W
41.0274994,-93.3024314
(estimated)
Elevation: 1049 ft. / 320 m (estimated)
Variation: 03E (1995)
From city: 1 mile NE of CHARITON, IA
Time zone: UTC -5 (UTC -6 during Standard Time)
Zip code: 50049

Heliport Operations

Heliport use: Private use. Permission required prior to landing
Activation date: 07/1996
Control tower: no
ARTCC: MINNEAPOLIS CENTER
FSS: FORT DODGE FLIGHT SERVICE STATION
Attendance: UNATNDD
Segmented circle: no

Heliport Communications

WX AWOS-3 at CNC (2.6 nm W): 125.525 (641-774-5645)
WX AWOS-3 at I75 (18 nm W): 120.975 (641-342-1422)
WX AWOS-3 at OXV (18 nm NE): 119.775 (641-828-8406)

Nearby radio navigation aids

VOR radial/distance  VOR name  Freq  Var
DSMr141/29.1DES MOINES VORTAC117.5007E
LMNr042/39.8LAMONI VOR/DME116.7007E

 
NDB name  Hdg/Dist  Freq  Var  ID
PELLA214/27.825702EPEA .--. . .-

Heliport Services

Runway Information

Helipad H1

Dimensions: 55 x 55 ft. / 17 x 17 m
Surface: concrete
Latitude: 41-01.649967N
Longitude: 093-18.145883W
Elevation: 1049.0 ft.
Traffic pattern: leftleft

Heliport Ownership and Management from official FAA records

Ownership: Privately-owned
Owner: LUCAS COUNTY HEALTH CENTER
1200 N 7TH STREET
CHARITON, IA 50049
Phone 641-774-3000
Manager: JOBETH LAWLESS
1200 N 7TH STREET
CHARITON, IA 50049
Phone (641) 774-3205
ADDNL CTC: JAYMA HOCH 641-774-3267 JHOCH@LCHCIA.COM

Additional Remarks

OWNER DESIRES ARPT NOT BE CHARTED.
FOR CD CTC MINNEAPOLIS ARTCC AT 651-463-5588.

Instrument Procedures

There are no published instrument procedures at IA19.

Some nearby airports with instrument procedures:

KCNC - Chariton Municipal Airport (3 nm W)
I75 - Osceola Municipal Airport (18 nm W)
KOXV - Knoxville Municipal Airport (18 nm NE)
4C8 - Albia Municipal Airport (24 nm E)
KTVK - Centerville Municipal Airport (27 nm SE)
 
Loc | Ops | Rwys | IFR | FBO | Links
Com | Nav | Svcs | Stats | Notes
Area around IA19 (Lucas County Health Center Heliport)
 
Road maps at: MapQuest Bing Google
 
Aerial photo
No photo
 
Sectional chart

 
Airport distance calculator
Flying to Lucas County Health Center Heliport? Find the distance to fly.

From to IA19

Sunrise and sunset
Times for 03-Apr-2020
 Local
(UTC-5)
 Zulu
(UTC)
Morning civil twilight06:2511:25
Sunrise06:5311:53
Sunset19:4000:40
Evening civil twilight20:0801:08

Current date and time
Zulu (UTC)  03-Apr-2020 11:26:14
Local (UTC-5)  03-Apr-2020 06:26:14
 
METAR
KCNC 
3nm W 
031055Z AUTO 33014G24KT 10SM OVC006 02/01 A3002 RMK AO2
KOXV 
17nm NE 
031055Z AUTO 34014G22KT 10SM OVC006 03/03 A3002 RMK AO2
KI75 
18nm W 
031055Z AUTO 33012KT 10SM OVC008 01/00 A3002 RMK AO2 T00070000
TAF
KDSM 
35nm NW 
030933Z 0310/0406 33015G21KT 6SM -SHRA OVC006 FM031300 33015G22KT 3SM RA OVC008 FM032300 34012KT 5SM -RA OVC020 FM040100 35011KT P6SM BKN040
KOTM 
39nm E 
030934Z 0310/0406 31011KT P6SM OVC040 FM031200 31011KT 4SM -RA OVC015 FM031300 31011KT 3SM -RA OVC008 FM032000 31011KT 2SM -RA OVC008 FM040300 33013KT P6SM OVC015
NOTAMs
Click for the latest NOTAMs
NOTAMs are issued by the DoD/FAA and will open in a separate window not controlled by AirNav.

 

 
 

Would you like to see your business listed on this page?

 If your business provides an interesting product or service to pilots, flight crews, aircraft, or users of the Lucas County Health Center Heliport, you should consider listing it here.  To start the listing process, click on the button below
 
Add a business
 

Other Pages about Lucas County Health Center Heliport

Update a link
 
Copyright © AirNav, LLC. All rights reserved. Privacy Policy  Contact